createdAt,value
2017-10-22T00:03:43.183Z,97183.02
2017-10-22T00:08:29.737Z,97212.75
2017-10-22T00:13:16.333Z,97227.46
2017-10-22T00:18:02.914Z,97237.51
2017-10-22T00:22:49.486Z,97253.06
2017-10-22T00:27:36.053Z,97245.14
2017-10-22T00:32:22.837Z,97266.43
2017-10-22T00:37:09.389Z,97278.16
2017-10-22T00:41:56.020Z,97290.91
2017-10-22T00:46:43.340Z,97303.91
2017-10-22T00:51:29.956Z,97307.89
2017-10-22T00:56:16.667Z,97310.92
2017-10-22T01:01:03.252Z,97319.13
2017-10-22T01:05:49.813Z,97327.69
2017-10-22T01:10:36.577Z,97326.46
2017-10-22T01:15:23.160Z,97315.74
2017-10-22T01:20:09.726Z,97313.16
2017-10-22T01:24:56.289Z,97325.19
2017-10-22T01:29:42.888Z,97330.77
2017-10-22T01:34:29.585Z,97332.93
2017-10-22T01:39:16.408Z,97331.65
2017-10-22T01:44:03.097Z,97331.61
2017-10-22T01:48:49.681Z,97335.06
2017-10-22T01:53:36.573Z,97335.05
2017-10-22T01:58:23.268Z,97328.17
2017-10-22T02:03:10.111Z,97331.17
2017-10-22T02:07:57.400Z,97329.92
2017-10-22T02:12:43.981Z,97329.91
2017-10-22T02:17:30.516Z,97328.18
2017-10-22T02:22:17.074Z,97325.63
2017-10-22T02:27:03.636Z,97323.89
2017-10-22T02:31:50.204Z,97318.77
2017-10-22T02:36:36.960Z,97309.70
2017-10-22T02:41:24.312Z,97310.14
2017-10-22T02:46:10.883Z,97302.81
2017-10-22T02:50:57.753Z,97306.61
2017-10-22T02:55:44.296Z,97301.44
2017-10-22T03:00:30.885Z,97307.01
2017-10-22T03:05:18.377Z,97311.63
2017-10-22T03:10:04.951Z,97310.44
2017-10-22T03:14:51.548Z,97298.50
2017-10-22T03:19:39.221Z,97315.27
2017-10-22T03:24:25.812Z,97306.28
2017-10-22T03:29:13.161Z,97281.38
2017-10-22T03:34:00.537Z,97297.86
2017-10-22T03:38:47.140Z,97314.34
2017-10-22T03:43:33.686Z,97301.48
2017-10-22T03:48:20.260Z,97307.88
2017-10-22T03:53:06.834Z,97316.56
2017-10-22T03:57:53.428Z,97321.71
2017-10-22T04:02:40.134Z,97332.87
2017-10-22T04:07:26.685Z,97320.81
2017-10-22T04:12:13.569Z,97319.06
2017-10-22T04:17:00.234Z,97309.21
2017-10-22T04:21:46.785Z,97314.80
2017-10-22T04:26:34.113Z,97312.30
2017-10-22T04:31:20.683Z,97313.57
2017-10-22T04:36:07.248Z,97305.41
2017-10-22T04:40:54.099Z,97309.72
2017-10-22T04:45:41.408Z,97299.77
2017-10-22T04:50:27.936Z,97300.28
2017-10-22T04:55:14.549Z,97306.72
2017-10-22T05:00:01.173Z,97287.87
2017-10-22T05:04:48.497Z,97290.89
2017-10-22T05:09:35.229Z,97290.44
2017-10-22T05:14:22.869Z,97293.44
2017-10-22T05:19:10.209Z,97282.72
2017-10-22T05:23:56.777Z,97296.84
2017-10-22T05:28:43.513Z,97298.14
2017-10-22T05:33:30.177Z,97296.02
2017-10-22T05:38:16.769Z,97294.30
2017-10-22T05:43:03.356Z,97289.58
2017-10-22T05:47:50.269Z,97298.60
2017-10-22T05:52:36.940Z,97302.42
2017-10-22T05:57:23.569Z,97300.28
2017-10-22T06:02:11.649Z,97295.13
2017-10-22T06:06:58.976Z,97302.42
2017-10-22T06:11:46.301Z,97295.97
2017-10-22T06:16:32.996Z,97287.42
2017-10-22T06:21:19.596Z,97294.66
2017-10-22T06:26:06.127Z,97284.42
2017-10-22T06:30:52.715Z,97271.14
2017-10-22T06:35:39.280Z,97262.13
2017-10-22T06:40:26.013Z,97264.69
2017-10-22T06:45:12.578Z,97262.11
2017-10-22T06:49:59.230Z,97263.84
2017-10-22T06:54:45.974Z,97265.13
2017-10-22T06:59:32.653Z,97264.70
2017-10-22T07:04:19.212Z,97264.69
2017-10-22T07:09:05.817Z,97266.41
2017-10-22T07:13:52.360Z,97260.42
2017-10-22T07:18:38.932Z,97253.12
2017-10-22T07:23:25.511Z,97253.12
2017-10-22T07:28:12.174Z,97253.14
2017-10-22T07:32:59.081Z,97250.95
2017-10-22T07:37:52.513Z,97245.77
2017-10-22T07:42:39.100Z,97243.66
2017-10-22T07:47:25.677Z,97244.56
2017-10-22T07:52:12.401Z,97253.12
2017-10-22T07:56:59.713Z,97247.98
2017-10-22T08:01:46.291Z,97245.82
2017-10-22T08:06:32.895Z,97241.53
2017-10-22T08:11:19.441Z,97241.49
2017-10-22T08:16:06.049Z,97238.88
2017-10-22T08:20:52.636Z,97235.02
2017-10-22T08:25:39.967Z,97244.02
2017-10-22T08:30:26.602Z,97244.43
2017-10-22T08:35:13.979Z,97244.42
2017-10-22T08:40:00.552Z,97241.84
2017-10-22T08:44:47.895Z,97234.02
2017-10-22T08:49:35.201Z,97242.63
2017-10-22T08:54:21.787Z,97236.10
2017-10-22T08:59:08.382Z,97236.30
2017-10-22T09:03:54.973Z,97231.98
2017-10-22T09:08:41.569Z,97239.39
2017-10-22T09:13:28.189Z,97229.41
2017-10-22T09:18:14.870Z,97223.09
2017-10-22T09:23:01.538Z,97220.67
2017-10-22T09:27:48.141Z,97208.80
2017-10-22T09:32:34.749Z,97210.00
2017-10-22T09:37:21.380Z,97217.23
2017-10-22T09:42:07.953Z,97225.40
2017-10-22T09:46:54.567Z,97225.49
2017-10-22T09:51:41.897Z,97223.14
2017-10-22T09:56:29.254Z,97225.97
2017-10-22T10:01:15.856Z,97222.50
2017-10-22T10:06:03.318Z,97217.93
2017-10-22T10:10:50.035Z,97221.01
2017-10-22T10:15:36.714Z,97213.93
2017-10-22T10:20:23.469Z,97207.70
2017-10-22T10:25:10.074Z,97199.42
2017-10-22T10:29:57.483Z,97193.32
2017-10-22T10:34:44.237Z,97187.00
2017-10-22T10:39:38.659Z,97183.72
2017-10-22T10:44:25.264Z,97181.48
2017-10-22T10:49:12.693Z,97180.02
2017-10-22T10:53:59.311Z,97173.61
2017-10-22T10:58:45.896Z,97165.98
2017-10-22T11:03:32.496Z,97166.63
2017-10-22T11:08:19.126Z,97155.42
2017-10-22T11:13:05.764Z,97148.59
2017-10-22T11:17:52.452Z,97147.80
2017-10-22T11:22:39.066Z,97138.27
2017-10-22T11:27:25.709Z,97127.39
2017-10-22T11:32:12.548Z,97118.41
2017-10-22T11:41:45.996Z,97103.98
2017-10-22T11:46:32.631Z,97097.23
2017-10-22T11:51:19.308Z,97093.77
2017-10-22T11:56:05.957Z,97081.65
2017-10-22T12:00:52.562Z,97070.48
2017-10-22T12:05:39.219Z,97075.78
2017-10-22T12:10:25.824Z,97073.96
2017-10-22T12:15:12.546Z,97078.95
2017-10-22T12:19:59.390Z,97087.52
2017-10-22T12:24:46.762Z,97098.77
2017-10-22T12:29:33.420Z,97085.25
2017-10-22T12:34:20.053Z,97081.35
2017-10-22T12:39:06.711Z,97089.37
2017-10-22T12:43:53.387Z,97083.52
2017-10-22T12:48:40.005Z,97073.30
2017-10-22T12:53:26.929Z,97095.44
2017-10-22T12:58:13.658Z,97097.14
2017-10-22T13:03:00.372Z,97089.48
2017-10-22T13:07:47.194Z,97075.23
2017-10-22T13:12:33.905Z,97066.42
2017-10-22T13:17:20.594Z,97063.77
2017-10-22T13:22:08.064Z,97058.61
2017-10-22T13:26:54.753Z,97054.02
2017-10-22T13:31:42.171Z,97051.84
2017-10-22T13:36:28.789Z,97051.64
2017-10-22T13:41:15.437Z,97034.92
2017-10-22T13:46:02.820Z,97031.30
2017-10-22T13:50:49.457Z,97030.54
2017-10-22T13:55:36.229Z,97037.73
2017-10-22T14:00:22.977Z,97027.00
2017-10-22T14:05:09.594Z,97025.92
2017-10-22T14:09:56.606Z,97032.64
2017-10-22T14:14:43.252Z,97028.44
2017-10-22T14:19:30.065Z,97037.48
2017-10-22T14:24:16.721Z,97037.35
2017-10-22T14:29:03.353Z,97037.91
2017-10-22T14:33:50.056Z,97051.59
2017-10-22T14:38:37.131Z,97045.11
2017-10-22T14:43:24.720Z,97043.37
2017-10-22T14:48:11.723Z,97043.77
2017-10-22T14:52:58.365Z,97047.32
2017-10-22T14:57:45.491Z,97040.84
2017-10-22T15:02:32.681Z,97040.33
2017-10-22T15:07:20.567Z,97039.96
2017-10-22T15:12:07.378Z,97036.70
2017-10-22T15:16:54.033Z,97052.02
2017-10-22T15:21:40.699Z,97045.16
2017-10-22T15:26:27.426Z,97049.73
2017-10-22T15:31:15.034Z,97046.97
2017-10-22T15:36:02.003Z,97033.52
2017-10-22T15:40:48.742Z,97025.52
2017-10-22T15:45:35.405Z,97017.77
2017-10-22T15:50:22.268Z,97016.95
2017-10-22T15:55:09.003Z,97004.58
2017-10-22T15:59:55.833Z,97009.39
2017-10-22T16:04:42.659Z,97000.87
2017-10-22T16:09:29.508Z,97010.38
2017-10-22T16:14:16.311Z,97011.02
2017-10-22T16:19:03.417Z,97028.31
2017-10-22T16:23:50.808Z,97026.31
2017-10-22T16:28:37.670Z,97026.77
2017-10-22T16:33:25.323Z,97025.92
2017-10-22T16:38:12.810Z,97030.77
2017-10-22T16:42:59.685Z,97025.59
2017-10-22T16:47:47.057Z,97029.54
2017-10-22T16:52:34.138Z,97030.78
2017-10-22T16:57:21.020Z,97033.91
2017-10-22T17:02:07.663Z,97048.09
2017-10-22T17:06:54.707Z,97056.68
2017-10-22T17:11:42.730Z,97061.36
2017-10-22T17:16:30.161Z,97060.97
2017-10-22T17:21:17.382Z,97073.44
2017-10-22T17:26:04.108Z,97072.59
2017-10-22T17:30:51.008Z,97073.00
2017-10-22T17:35:38.802Z,97089.85
2017-10-22T17:40:25.747Z,97087.30
2017-10-22T17:45:12.436Z,97096.23
2017-10-22T17:49:59.364Z,97088.79
2017-10-22T17:54:46.573Z,97087.77
2017-10-22T17:59:34.556Z,97074.16
2017-10-22T18:04:21.770Z,97067.36
2017-10-22T18:09:08.648Z,97093.86
2017-10-22T18:13:55.415Z,97122.96
2017-10-22T18:18:42.213Z,97136.56
2017-10-22T18:23:29.822Z,97124.80
